AQQ10 IFIS: Internet Flight Information System
logo dgac
Miércoles 28 de Febrero del 2024
Buscar por aerodromo o helipuerto
Ingrese nombre de aeródromo, localidad o designador OACI:
METAR del 28-02-2024 a las 00:00 UTC
Para mayor información visite www.meteochile.gob.cl
METAR SCIP 280000Z 12010KT 080V140 9999 SCT030 SCT050 25/18 Q1019 NOSIG
Viento: dirección 120 grados, velocidad 10 nudos
Viento con dirección variable entre 080 y 140 grados
Visibilidad: 10 km o más
Nubes: Nubosidad parcial a 3000 pies sobre el nivel del aeródromo
Nubes: Nubosidad parcial a 5000 pies sobre el nivel del aeródromo
Temperatura: 25 °C
Rocío: 18 °C
Humedad_relativa: 65%
Presión: 1019 hPa
No se esperan cambios significativos en las próximas 2 horas
METAR del 27-02-2024 a las 23:00 UTC
Para mayor información visite www.meteochile.gob.cl
METAR SCIP 272300Z 10009KT 9999 SCT040 25/18 Q1019 NOSIG
Viento: dirección 100 grados, velocidad 9 nudos
Visibilidad: 10 km o más
Nubes: Nubosidad parcial a 4000 pies sobre el nivel del aeródromo
Temperatura: 25 °C
Rocío: 18 °C
Humedad_relativa: 65%
Presión: 1019 hPa
No se esperan cambios significativos en las próximas 2 horas
METAR del 27-02-2024 a las 22:00 UTC
Para mayor información visite www.meteochile.gob.cl
METAR SCIP 272200Z 11010KT 070V130 9999 SCT040 25/18 Q1019 NOSIG
Viento: dirección 110 grados, velocidad 10 nudos
Viento con dirección variable entre 070 y 130 grados
Visibilidad: 10 km o más
Nubes: Nubosidad parcial a 4000 pies sobre el nivel del aeródromo
Temperatura: 25 °C
Rocío: 18 °C
Humedad_relativa: 65%
Presión: 1019 hPa
No se esperan cambios significativos en las próximas 2 horas
METAR del 27-02-2024 a las 21:00 UTC
Para mayor información visite www.meteochile.gob.cl
METAR SCIP 272100Z 11013KT 9999 SCT040 26/19 Q1020 NOSIG
Viento: dirección 110 grados, velocidad 13 nudos
Visibilidad: 10 km o más
Nubes: Nubosidad parcial a 4000 pies sobre el nivel del aeródromo
Temperatura: 26 °C
Rocío: 19 °C
Humedad_relativa: 65%
Presión: 1020 hPa
No se esperan cambios significativos en las próximas 2 horas
METAR del 27-02-2024 a las 20:00 UTC
Para mayor información visite www.meteochile.gob.cl
METAR SCIP 272000Z 07006KT 010V120 9999 SCT030 SCT040 26/18 Q1021 NOSIG
Viento: dirección 070 grados, velocidad 6 nudos
Viento con dirección variable entre 010 y 120 grados
Visibilidad: 10 km o más
Nubes: Nubosidad parcial a 3000 pies sobre el nivel del aeródromo
Nubes: Nubosidad parcial a 4000 pies sobre el nivel del aeródromo
Temperatura: 26 °C
Rocío: 18 °C
Humedad_relativa: 61%
Presión: 1021 hPa
No se esperan cambios significativos en las próximas 2 horas
METAR del 27-02-2024 a las 19:00 UTC
Para mayor información visite www.meteochile.gob.cl
METAR SCIP 271900Z 08007KT 020V120 9999 FEW030 SCT040 27/18 Q1021 NOSIG
Viento: dirección 080 grados, velocidad 7 nudos
Viento con dirección variable entre 020 y 120 grados
Visibilidad: 10 km o más
Nubes: Escasa nubosidad a 3000 pies sobre el nivel del aeródromo
Nubes: Nubosidad parcial a 4000 pies sobre el nivel del aeródromo
Temperatura: 27 °C
Rocío: 18 °C
Humedad_relativa: 58%
Presión: 1021 hPa
No se esperan cambios significativos en las próximas 2 horas
METAR del 27-02-2024 a las 18:00 UTC
Para mayor información visite www.meteochile.gob.cl
METAR SCIP 271800Z 05005KT 330V140 9999 SCT030 BKN050 26/18 Q1022 NOSIG
Viento: dirección 050 grados, velocidad 5 nudos
Viento con dirección variable entre 330 y 140 grados
Visibilidad: 10 km o más
Nubes: Nubosidad parcial a 3000 pies sobre el nivel del aeródromo
Nubes: Nublado a 5000 pies sobre el nivel del aeródromo
Temperatura: 26 °C
Rocío: 18 °C
Humedad_relativa: 61%
Presión: 1022 hPa
No se esperan cambios significativos en las próximas 2 horas
METAR del 27-02-2024 a las 17:00 UTC
Para mayor información visite www.meteochile.gob.cl
METAR SCIP 271700Z 05007KT 360V100 9999 SCT030 BKN060 25/18 Q1022 NOSIG
Viento: dirección 050 grados, velocidad 7 nudos
Viento con dirección variable entre 360 y 100 grados
Visibilidad: 10 km o más
Nubes: Nubosidad parcial a 3000 pies sobre el nivel del aeródromo
Nubes: Nublado a 6000 pies sobre el nivel del aeródromo
Temperatura: 25 °C
Rocío: 18 °C
Humedad_relativa: 65%
Presión: 1022 hPa
No se esperan cambios significativos en las próximas 2 horas
METAR del 27-02-2024 a las 16:00 UTC
Para mayor información visite www.meteochile.gob.cl
METAR SCIP 271600Z 08007KT 050V120 9999 SCT025 BKN050 24/20 Q1022 NOSIG
Viento: dirección 080 grados, velocidad 7 nudos
Viento con dirección variable entre 050 y 120 grados
Visibilidad: 10 km o más
Nubes: Nubosidad parcial a 2500 pies sobre el nivel del aeródromo
Nubes: Nublado a 5000 pies sobre el nivel del aeródromo
Temperatura: 24 °C
Rocío: 20 °C
Humedad_relativa: 78%
Presión: 1022 hPa
No se esperan cambios significativos en las próximas 2 horas
METAR del 27-02-2024 a las 15:00 UTC
Para mayor información visite www.meteochile.gob.cl
METAR SCIP 271500Z 09005KT 060V120 9999 FEW020 BKN040 23/19 Q1022 NOSIG
Viento: dirección 090 grados, velocidad 5 nudos
Viento con dirección variable entre 060 y 120 grados
Visibilidad: 10 km o más
Nubes: Escasa nubosidad a 2000 pies sobre el nivel del aeródromo
Nubes: Nublado a 4000 pies sobre el nivel del aeródromo
Temperatura: 23 °C
Rocío: 19 °C
Humedad_relativa: 78%
Presión: 1022 hPa
No se esperan cambios significativos en las próximas 2 horas